ADDS METAR Data INFO
IDs: Format: Raw Decoded Include TAF

Data at: 0115 UTC 21 Oct 2017

KMAN 210055Z AUTO 24009G15KT 10SM BKN110 10/M01 A2989 RMK A01
KMAN 210035Z AUTO 24011G16KT 10SM BKN100 10/M01 A2989 RMK A01
KMAN 210015Z AUTO 25011G20KT 10SM FEW070 SCT085 BKN110 11/M00 A2988 RMK A01
KMAN 202355Z AUTO 25011KT 10SM SCT070 BKN090 OVC110 12/M02 A2988 RMK A01
KMAN 202335Z AUTO 28011G22KT 10SM OVC090 13/M03 A2986 RMK A01
KMAN 202315Z AUTO 28012G19KT 10SM OVC085 13/M03 A2986 RMK A01
KMAN 202255Z AUTO 28013KT 10SM FEW075 OVC090 13/M02 A2985 RMK A01
KMAN 202235Z AUTO 28009G15KT 10SM FEW065 BKN080 OVC090 12/M02 A2985 RMK A01
KMAN 202215Z AUTO 28010G17KT 10SM FEW065 BKN080 BKN090 13/M02 A2984 RMK A01
KMAN 202155Z AUTO 31010G18KT 10SM FEW065 SCT075 BKN090 13/M02 A2983 RMK A01
KMAN 202135Z AUTO 29010G17KT 10SM SCT060 OVC080 12/M01 A2983 RMK A01
KMAN 202115Z AUTO 28014G20KT 10SM SCT065 BKN075 BKN085 12/M01 A2983 RMK A01
KMAN 202055Z AUTO 27020G26KT 10SM BKN060 BKN070 12/M01 A2983 RMK A01
KMAN 202035Z AUTO 29012G19KT 10SM SCT055 SCT065 12/M01 A2983 RMK A01
KMAN 202015Z AUTO 29015G22KT 10SM FEW049 SCT060 SCT065 12/M00 A2982 RMK A01
KMAN 201955Z AUTO 30017G24KT 10SM FEW048 BKN060 BKN065 12/00 A2982 RMK A01
KMAN 201935Z AUTO 27015G29KT 10SM BKN049 BKN055 BKN090 12/00 A2981 RMK A01
KMAN 201915Z AUTO 27012G18KT 10SM SCT049 BKN065 BKN085 12/01 A2981 RMK A01
KMAN 201855Z AUTO 28014G24KT 10SM SCT110 11/01 A2981 RMK A01
KMAN 201835Z AUTO 28016G27KT 10SM FEW049 FEW075 10/01 A2981 RMK A01
KMAN 201815Z AUTO 27017G24KT 10SM FEW043 FEW055 SCT075 10/01 A2980 RMK A01
KMAN 201755Z AUTO 28014G19KT 10SM BKN055 BKN075 BKN120 10/03 A2979 RMK A01
KMAN 201735Z AUTO 29008G13KT 10SM SCT041 SCT047 BKN055 09/03 A2979 RMK A01
KMAN 201715Z AUTO 28010G19KT 10SM BKN040 BKN047 08/03 A2979 RMK A01
KMAN 201655Z AUTO 28016G22KT 10SM FEW034 SCT044 SCT050 08/03 A2979 RMK A01
KMAN 201635Z AUTO 26010G17KT 10SM FEW033 SCT049 07/04 A2978 RMK A01
KMAN 201615Z AUTO 26005KT 10SM FEW034 FEW044 07/04 A2978 RMK A01
KMAN 201555Z AUTO 26006KT 10SM FEW024 SCT032 BKN042 06/04 A2977 RMK A01
KMAN 201535Z AUTO 27010G19KT 9SM SCT024 BKN030 OVC034 06/04 A2977 RMK A01
KMAN 201515Z AUTO 26008G21KT 9SM BKN027 OVC035 06/04 A2975 RMK A01
KMAN 201455Z AUTO 27006KT 8SM BKN024 06/05 A2973 RMK A01 P0009
KMAN 201435Z AUTO 29009KT 4SM BR FEW020 FEW026 06/05 A2972 RMK A01
KMAN 201415Z AUTO 28012KT 4SM BR 06/05 A2971 RMK A01
KMAN 201355Z AUTO 28013G18KT 8SM OVC034 07/05 A2969 RMK A01 P0002
KMAN 201335Z AUTO 28007KT 9SM 07/06 A2967 RMK A01
KMAN 201315Z AUTO 32007KT 9SM 07/06 A2964 RMK A01
KMAN 201255Z AUTO 33007KT 7SM 08/05 A2964 RMK A01
KMAN 201235Z AUTO 32004KT 10SM 08/05 A2963 RMK A01
KMAN 201215Z AUTO 32008KT 10SM 08/04 A2962 RMK A01
KMAN 201155Z AUTO 01009KT 10SM 08/05 A2961 RMK A01
KMAN 201135Z AUTO 32010G16KT 10SM 09/05 A2960 RMK A01
KMAN 201115Z AUTO 33011G19KT 10SM 09/05 A2961 RMK A01
KMAN 201055Z AUTO 30016G32KT 8SM 10/04 A2958 RMK A01
KMAN 201035Z AUTO 30022G30KT 8SM BKN036 OVC080 11/04 A2957 RMK A01
KMAN 201015Z AUTO 28021G31KT 9SM FEW038 SCT080 OVC095 14/05 A2954 RMK A01
KMAN 200955Z AUTO 27010G20KT 10SM 16/01 A2948 RMK A01
KMAN 200915Z AUTO 15006KT 10SM SCT055 BKN065 13/M03 A2945 RMK A01
KMAN 200855Z AUTO 14006KT 10SM 14/M04 A2946 RMK A01
KMAN 200835Z AUTO 11007KT 10SM 14/M07 A2947 RMK A01
KMAN 200815Z AUTO 18004KT 10SM 14/M06 A2948 RMK A01
KMAN 200755Z AUTO 12006KT 10SM 15/M06 A2947 RMK A01
KMAN 200735Z AUTO 15005KT 10SM 14/M04 A2947 RMK A01
KMAN 200715Z AUTO 13004KT 10SM 16/M04 A2947 RMK A01
KMAN 200655Z AUTO 13007KT 10SM 17/M02 A2948 RMK A01
KMAN 200635Z AUTO 15005G10KT 10SM 19/01 A2948 RMK A01
KMAN 200615Z AUTO 22009KT 10SM 20/01 A2949 RMK A01
KMAN 200555Z AUTO 20008KT 10SM 19/M00 A2949 RMK A01
KMAN 200535Z AUTO 20010KT 10SM 20/M00 A2950 RMK A01
KMAN 200515Z AUTO 20008KT 10SM 16/M02 A2950 RMK A01
KMAN 200455Z AUTO 00000KT 10SM 16/M03 A2951 RMK A01
KMAN 200435Z AUTO 12006KT 10SM 16/M06 A2952 RMK A01
KMAN 200415Z AUTO 11006KT 10SM 16/M07 A2953 RMK A01
KMAN 200355Z AUTO 12006KT 10SM 15/M06 A2953 RMK A01
KMAN 200335Z AUTO 13005KT 10SM 14/M05 A2955 RMK A01
KMAN 200315Z AUTO 13005KT 10SM 15/M05 A2955 RMK A01
KMAN 200255Z AUTO 12007KT 10SM 17/M08 A2956 RMK A01
KMAN 200235Z AUTO 15005KT 10SM 15/M06 A2956 RMK A01
KMAN 200215Z AUTO 14005KT 10SM 15/M06 A2956 RMK A01
KMAN 200155Z AUTO 14005KT 10SM 15/M05 A2956 RMK A01
KMAN 200135Z AUTO VRB04KT 10SM 14/M02 A2957 RMK A01
KMAN 200115Z AUTO 00000KT 10SM CLR 19/M05 A2957 RMK A01
KMAN 200055Z AUTO 20003KT 10SM CLR 18/M04 A2957 RMK A01
KMAN 200035Z AUTO VRB03KT 10SM CLR 19/M05 A2958 RMK A01
KMAN 200015Z AUTO 00000KT 10SM CLR 22/M08 A2959 RMK A01
KMAN 192355Z AUTO 27004KT 10SM CLR 23/M10 A2960 RMK A01
KMAN 192335Z AUTO 00000KT 10SM CLR 24/M12 A2961 RMK A01
KMAN 192315Z AUTO VRB03KT 10SM CLR 25/M11 A2962 RMK A01
KMAN 192255Z AUTO 00000KT 10SM CLR 25/M12 A2963 RMK A01
KMAN 192235Z AUTO 14005KT 10SM CLR 26/M12 A2965 RMK A01
KMAN 192215Z AUTO 15006G12KT 10SM CLR 25/M13 A2966 RMK A01
KMAN 192155Z AUTO 14008KT 10SM CLR 26/M12 A2967 RMK A01
KMAN 192135Z AUTO 17004KT 10SM CLR 26/M11 A2968 RMK A01
KMAN 192115Z AUTO 00000KT 9SM CLR 25/M10 A2969 RMK A01
KMAN 192055Z AUTO 00000KT 7SM CLR 24/M10 A2970 RMK A01
KMAN 192035Z AUTO 11006KT 10SM CLR 24/M10 A2972 RMK A01
KMAN 192015Z AUTO 11004KT 5SM HZ CLR 24/M08 A2973 RMK A01
KMAN 191955Z AUTO 14006KT 4SM HZ CLR 23/M06 A2975 RMK A01
KMAN 191935Z AUTO 17004KT 1 1/4SM HZ CLR 22/M04 A2976 RMK A01 VIS 1V5
KMAN 191915Z AUTO 18006KT 1 1/2SM HZ CLR 21/M03 A2978 RMK A01 VIS 1V2 1/2
KMAN 191855Z AUTO 22008KT 3SM HZ CLR 20/M04 A2979 RMK A01
KMAN 191835Z AUTO 22006KT 2 1/2SM HZ CLR 20/M03 A2980 RMK A01
KMAN 191815Z AUTO 23005KT 5SM HZ CLR 19/M03 A2981 RMK A01
KMAN 191755Z AUTO 21007KT 2SM HZ CLR 19/M03 A2981 RMK A01 VIS 1 1/4V5
KMAN 191735Z AUTO 15008KT 2SM HZ CLR 20/M06 A2981 RMK A01
KMAN 191715Z AUTO 17010KT 2 1/2SM HZ CLR 19/M05 A2982 RMK A01 VIS 1 3/4V5
KMAN 191655Z AUTO 16006KT 10SM CLR 17/M04 A2982 RMK A01
KMAN 191635Z AUTO 15006KT 9SM CLR 16/M04 A2983 RMK A01
KMAN 191615Z AUTO 16006KT 5SM HZ CLR 14/M04 A2983 RMK A01
KMAN 191555Z AUTO 15007KT 10SM CLR 13/M04 A2983 RMK A01
KMAN 191535Z AUTO 15007KT 9SM CLR 12/M04 A2983 RMK A01
KMAN 191515Z AUTO 15006KT 10SM CLR 11/M04 A2983 RMK A01
KMAN 191455Z AUTO 14008KT 10SM CLR 09/M04 A2983 RMK A01
KMAN 191435Z AUTO 14006KT 10SM CLR 07/M04 A2983 RMK A01
KMAN 191415Z AUTO 13006KT 10SM 09/M04 A2982 RMK A01
KMAN 191355Z AUTO 12005KT 10SM 07/M04 A2983 RMK A01
KMAN 191335Z AUTO 12007KT 10SM 08/M04 A2983 RMK A01